Time;durP1;ratioP1;P1;durP2;ratioP2;P2;SDS_P1;SDS_P2;PMS_P1;PMS_P2;Temp;Humidity;BMP_temperature;BMP_pressure;BME280_temperature;BME280_humidity;BME280_pressure;Samples;Min_cycle;Max_cycle;Signal;HPM_P1;HPM_P2
2021/09/14 00:01:40;;;;;;;7.60;4.70;;;13.60;99.90;;;14.73;100.00;98126.84;5111562;28;20454;-78
2021/09/14 00:04:09;;;;;;;4.57;4.17;;;13.50;99.90;;;14.73;100.00;98118.97;5105767;28;20522;-78
2021/09/14 00:06:40;;;;;;;8.57;4.03;;;13.60;99.90;;;14.64;100.00;98113.16;5105380;28;20447;-78
2021/09/14 00:09:09;;;;;;;8.20;4.07;;;13.60;99.90;;;14.61;100.00;98111.72;5110905;28;20450;-78
2021/09/14 00:11:39;;;;;;;8.50;5.10;;;13.60;99.90;;;14.60;100.00;98114.59;5105129;28;21073;-78
2021/09/14 00:14:08;;;;;;;7.63;4.70;;;13.50;99.90;;;14.60;100.00;98118.03;5111256;28;20447;-78
2021/09/14 00:16:37;;;;;;;10.30;3.63;;;13.50;99.90;;;14.61;100.00;98118.84;5111539;28;20510;-78
2021/09/14 00:19:06;;;;;;;5.23;4.10;;;13.50;99.90;;;14.56;100.00;98114.19;5105720;28;20454;-77
2021/09/14 00:21:34;;;;;;;9.60;4.37;;;13.50;99.90;;;14.51;100.00;98116.63;5111015;28;20503;-78
2021/09/14 00:24:05;;;;;;;6.47;4.13;;;13.40;99.90;;;14.52;100.00;98110.38;5111062;28;20442;-78
2021/09/14 00:26:33;;;;;;;4.13;3.73;;;13.50;99.90;;;14.54;100.00;98100.44;5110600;28;21321;-78
2021/09/14 00:29:02;;;;;;;6.43;4.67;;;13.50;99.90;;;14.50;100.00;98114.22;5108591;28;20946;-78
2021/09/14 00:31:32;;;;;;;7.23;4.30;;;13.40;99.90;;;14.53;100.00;98101.47;5106537;28;20501;-78
2021/09/14 00:34:01;;;;;;;6.83;4.57;;;13.40;99.90;;;14.48;100.00;98098.66;5112572;28;20888;-78
2021/09/14 00:36:29;;;;;;;9.57;4.47;;;13.40;99.90;;;14.43;100.00;98097.66;5112019;28;20475;-78
2021/09/14 00:38:58;;;;;;;9.60;4.17;;;13.40;99.90;;;14.35;100.00;98095.28;5102183;28;20488;-78
2021/09/14 00:41:28;;;;;;;5.67;4.17;;;13.20;99.90;;;14.37;100.00;98099.28;5115128;28;20493;-77
2021/09/14 00:43:57;;;;;;;6.90;4.57;;;13.30;99.90;;;14.37;100.00;98103.78;5115141;28;20487;-77
2021/09/14 00:46:26;;;;;;;5.10;4.60;;;13.30;99.90;;;14.33;100.00;98097.28;5108186;28;21035;-78
2021/09/14 00:48:55;;;;;;;9.30;4.77;;;13.20;99.90;;;14.26;100.00;98097.31;5114589;28;20443;-77
2021/09/14 00:51:25;;;;;;;6.10;4.43;;;13.20;99.90;;;14.24;100.00;98093.25;5103115;28;20522;-78
2021/09/14 00:53:53;;;;;;;13.03;5.00;;;13.10;99.90;;;14.24;100.00;98088.81;5114393;28;20939;-77
2021/09/14 00:56:22;;;;;;;8.80;5.07;;;13.10;99.90;;;14.18;100.00;98089.66;5103628;28;21046;-78
2021/09/14 00:58:52;;;;;;;5.37;3.83;;;13.10;99.90;;;14.21;100.00;98089.22;5114234;28;20458;-78
2021/09/14 01:01:20;;;;;;;5.47;4.20;;;13.20;99.90;;;14.18;100.00;98084.38;5114713;28;20478;-78
2021/09/14 01:03:50;;;;;;;6.63;4.33;;;13.10;99.90;;;14.11;100.00;98084.41;5100828;28;20957;-78
2021/09/14 01:06:18;;;;;;;6.27;4.70;;;13.00;99.90;;;14.20;100.00;98084.97;5100258;28;20454;-77
2021/09/14 01:08:47;;;;;;;5.77;4.17;;;13.10;99.90;;;14.07;100.00;98091.09;5114317;28;21003;-78
2021/09/14 01:11:16;;;;;;;5.17;4.07;;;12.90;99.90;;;14.02;100.00;98090.91;5113960;28;20462;-78
2021/09/14 01:13:45;;;;;;;4.87;4.10;;;12.90;99.90;;;13.93;100.00;98084.28;5114273;28;20482;-77
2021/09/14 01:16:15;;;;;;;7.63;4.83;;;12.80;99.90;;;14.00;100.00;98079.00;5114707;28;20443;-77
2021/09/14 01:18:43;;;;;;;8.80;4.50;;;12.90;99.90;;;13.95;100.00;98084.88;5114011;28;20446;-77
2021/09/14 01:21:20;;;;;;;13.27;4.73;;;12.80;99.90;;;13.90;100.00;98086.50;5108139;28;20454;-77
2021/09/14 01:23:50;;;;;;;9.23;4.30;;;12.70;99.90;;;13.91;100.00;98090.75;5107766;28;20826;-78
2021/09/14 01:26:19;;;;;;;4.90;4.00;;;12.80;99.90;;;13.97;100.00;98082.03;5114085;28;20442;-77
2021/09/14 01:28:48;;;;;;;7.90;4.70;;;12.80;99.90;;;13.90;100.00;98089.94;5113389;28;20490;-78
2021/09/14 01:31:16;;;;;;;8.20;4.07;;;12.70;99.90;;;13.93;100.00;98081.66;5110147;28;20931;-77
2021/09/14 01:33:48;;;;;;;14.50;5.00;;;12.80;99.90;;;13.90;100.00;98092.59;5103401;28;20442;-78
2021/09/14 01:36:18;;;;;;;4.37;3.57;;;12.70;99.90;;;13.89;100.00;98090.16;5110049;28;20451;-77
2021/09/14 01:38:47;;;;;;;10.87;4.10;;;12.80;99.90;;;13.73;100.00;98091.41;5099271;28;20478;-77
2021/09/14 01:41:17;;;;;;;16.83;4.40;;;12.60;99.90;;;13.80;100.00;98088.75;5116109;27;20498;-77
2021/09/14 01:43:46;;;;;;;6.13;4.87;;;12.70;99.90;;;13.79;100.00;98089.78;5121809;27;20562;-77
2021/09/14 01:46:14;;;;;;;5.40;4.50;;;12.70;99.90;;;13.81;100.00;98093.03;5113208;28;20852;-77
2021/09/14 01:48:43;;;;;;;5.67;4.17;;;12.70;99.90;;;13.80;100.00;98089.56;5113812;28;20529;-78
2021/09/14 01:51:11;;;;;;;7.73;4.17;;;12.70;99.90;;;13.81;100.00;98093.84;5110270;28;20446;-77
2021/09/14 01:53:41;;;;;;;9.73;4.40;;;12.70;99.90;;;13.76;100.00;98084.94;5112954;28;20881;-77
2021/09/14 01:56:09;;;;;;;6.50;4.60;;;12.60;99.90;;;13.75;100.00;98093.81;5113270;28;20519;-78
2021/09/14 01:58:39;;;;;;;6.63;4.30;;;12.60;99.90;;;13.75;100.00;98083.31;5113315;28;20478;-78
2021/09/14 02:01:12;;;;;;;19.33;4.70;;;12.60;99.90;;;13.79;100.00;98089.78;5113357;28;20453;-77
2021/09/14 02:03:48;;;;;;;6.07;4.87;;;12.70;99.90;;;13.80;100.00;98091.41;5102548;28;20549;-78
2021/09/14 02:23:38;;;;;;;6.07;4.23;;;12.60;99.90;;;13.75;100.00;98078.06;5085434;28;20450;-78
2021/09/14 02:56:56;;;;;;;6.00;4.63;;;12.40;99.90;;;13.41;100.00;98058.94;5111946;28;20833;-77
2021/09/14 02:59:23;;;;;;;5.90;3.93;;;12.40;99.90;;;13.40;100.00;98070.44;5108419;28;20450;-77
2021/09/14 03:01:52;;;;;;;8.70;4.83;;;12.30;99.90;;;13.43;100.00;98064.78;5100763;28;21071;-78
2021/09/14 03:04:22;;;;;;;5.10;4.20;;;12.40;99.90;;;13.44;100.00;98066.41;5100773;28;20548;-77
2021/09/14 03:06:50;;;;;;;11.27;4.93;;;12.30;99.90;;;13.46;100.00;98074.09;5102119;28;20509;-77
2021/09/14 03:09:19;;;;;;;7.87;5.53;;;12.40;99.90;;;13.47;100.00;98071.25;5111945;28;20454;-77
2021/09/14 03:11:47;;;;;;;9.80;3.77;;;12.40;99.90;;;13.46;100.00;98074.91;5111686;28;20936;-77
2021/09/14 03:14:16;;;;;;;6.83;4.27;;;12.40;99.90;;;13.38;100.00;98072.47;5100970;28;20859;-78
2021/09/14 03:16:44;;;;;;;5.97;4.13;;;12.30;99.90;;;13.38;100.00;98077.72;5106743;28;20446;-78
2021/09/14 03:19:13;;;;;;;4.67;3.93;;;12.30;99.90;;;13.31;100.00;98069.03;5111232;28;20451;-78
2021/09/14 03:21:43;;;;;;;7.10;4.80;;;12.20;99.90;;;13.40;100.00;98075.69;5111980;28;20478;-78
2021/09/14 03:24:11;;;;;;;7.20;4.53;;;12.40;99.90;;;13.38;100.00;98067.22;5102931;28;20467;-78
2021/09/14 03:26:39;;;;;;;8.97;4.60;;;12.40;99.90;;;13.40;100.00;98059.94;5110313;28;20496;-77
2021/09/14 03:29:08;;;;;;;5.53;4.40;;;12.30;99.90;;;13.35;100.00;98054.50;5112006;28;20497;-77
2021/09/14 03:31:38;;;;;;;9.07;4.27;;;12.30;99.90;;;13.32;100.00;98047.03;5103097;28;20455;-78
2021/09/14 03:34:06;;;;;;;4.53;3.87;;;12.30;99.90;;;13.32;100.00;98047.03;5108535;28;20921;-77
2021/09/14 03:36:35;;;;;;;5.40;4.60;;;12.30;99.90;;;13.35;100.00;98041.38;5110842;28;20473;-77
2021/09/14 03:39:06;;;;;;;6.40;5.03;;;12.30;99.90;;;13.38;100.00;98040.13;5101186;28;20459;-78
2021/09/14 03:41:34;;;;;;;7.60;4.00;;;12.30;99.90;;;13.37;100.00;98041.16;5111918;28;20475;-77
2021/09/14 03:44:03;;;;;;;5.93;4.10;;;12.30;99.90;;;13.32;100.00;98038.34;5110972;28;20443;-77
2021/09/14 03:46:31;;;;;;;5.87;4.40;;;12.20;99.90;;;13.31;100.00;98039.34;5111087;28;20848;-78
2021/09/14 03:49:00;;;;;;;4.70;4.20;;;12.30;99.90;;;13.31;100.00;98032.28;5111525;28;20496;-78
2021/09/14 03:51:28;;;;;;;5.90;4.90;;;12.40;99.90;;;13.33;100.00;98032.88;5111702;28;20472;-77
2021/09/14 03:53:57;;;;;;;5.50;4.60;;;12.40;99.90;;;13.32;100.00;98033.91;5110226;28;20522;-78
2021/09/14 03:56:27;;;;;;;5.37;4.33;;;12.30;99.90;;;13.29;100.00;98042.19;5107910;28;20483;-77
2021/09/14 03:58:55;;;;;;;12.83;4.87;;;12.30;99.90;;;13.31;100.00;98040.16;5109471;28;20438;-77
2021/09/14 04:01:24;;;;;;;4.83;4.03;;;12.30;99.90;;;13.31;100.00;98034.91;5111583;28;20482;-77
2021/09/14 04:03:56;;;;;;;7.10;4.50;;;12.30;99.90;;;13.31;100.00;98045.41;5101414;28;20527;-77
2021/09/14 04:09:10;;;;;;;5.87;4.43;;;12.20;99.90;;;13.31;100.00;98044.59;5108304;28;20494;-77
2021/09/14 04:11:41;;;;;;;9.10;4.20;;;12.30;99.90;;;13.29;100.00;98039.56;5111033;28;20462;-77
2021/09/14 04:14:10;;;;;;;5.40;3.63;;;12.30;99.90;;;13.30;100.00;98049.03;5111136;28;20598;-77
2021/09/14 04:16:39;;;;;;;5.30;4.50;;;12.30;99.90;;;13.21;100.00;98039.75;5111079;28;20454;-77
2021/09/14 04:19:07;;;;;;;4.97;3.53;;;12.20;99.90;;;13.14;100.00;98023.22;5101645;28;20919;-77
2021/09/14 04:21:36;;;;;;;7.20;4.40;;;12.10;99.90;;;13.17;100.00;98030.69;5111003;28;20442;-77
2021/09/14 04:24:05;;;;;;;4.70;4.20;;;12.10;99.90;;;13.17;100.00;98030.69;5111196;28;20845;-78
2021/09/14 04:26:38;;;;;;;6.10;4.33;;;12.10;99.90;;;13.10;100.00;98033.31;5109712;28;20439;-77
2021/09/14 04:29:07;;;;;;;5.93;4.57;;;12.10;99.90;;;13.14;100.00;98031.09;5101375;28;20512;-78
2021/09/14 04:31:35;;;;;;;13.97;4.67;;;12.10;99.90;;;13.07;100.00;98032.88;5110258;28;20443;-77
2021/09/14 04:34:04;;;;;;;5.27;3.63;;;12.00;99.90;;;13.09;100.00;98028.25;5111009;28;20895;-78
2021/09/14 04:36:32;;;;;;;6.30;4.03;;;12.00;99.90;;;13.13;100.00;98026.84;5107573;28;20447;-77
2021/09/14 04:39:01;;;;;;;6.90;4.00;;;12.10;99.90;;;13.11;100.00;98031.50;5092921;28;20495;-78
2021/09/14 04:41:29;;;;;;;6.47;4.63;;;12.10;99.90;;;13.04;100.00;98028.03;5109809;28;20446;-77
2021/09/14 04:43:59;;;;;;;4.90;3.97;;;12.00;99.90;;;13.05;100.00;98029.66;5107356;28;20446;-78
2021/09/14 04:46:27;;;;;;;7.43;4.63;;;12.00;99.90;;;13.02;100.00;98025.59;5117051;28;20467;-77
2021/09/14 04:48:56;;;;;;;7.47;4.80;;;12.00;99.90;;;13.01;100.00;98028.44;5105363;28;20507;-78
2021/09/14 04:51:24;;;;;;;5.30;3.77;;;12.00;99.90;;;12.96;100.00;98029.03;5110952;28;20459;-78
2021/09/14 04:53:53;;;;;;;5.37;3.93;;;11.90;99.90;;;12.93;100.00;98026.81;5110552;28;20494;-78
2021/09/14 04:56:23;;;;;;;6.90;4.60;;;11.90;99.90;;;12.96;100.00;98026.41;5099671;28;20479;-78
2021/09/14 04:58:51;;;;;;;5.33;4.33;;;11.90;99.90;;;12.98;100.00;98013.09;5110830;28;20450;-78
2021/09/14 05:01:22;;;;;;;6.50;4.47;;;11.90;99.90;;;13.01;100.00;98013.50;5101720;28;20513;-78
2021/09/14 05:03:51;;;;;;;6.80;4.07;;;12.00;99.90;;;12.99;100.00;98019.94;5095772;28;20454;-77
2021/09/14 05:06:19;;;;;;;4.30;3.80;;;11.90;99.90;;;12.97;100.00;98011.47;5107986;28;20462;-77
2021/09/14 05:08:48;;;;;;;19.87;4.40;;;11.90;99.90;;;12.93;100.00;98015.50;5108382;28;20499;-77
2021/09/14 05:11:16;;;;;;;5.27;4.57;;;11.90;99.90;;;12.96;100.00;98015.09;5110253;28;20498;-77
2021/09/14 05:13:44;;;;;;;6.90;4.63;;;11.90;99.90;;;12.94;100.00;98017.13;5110430;28;21027;-78
2021/09/14 05:16:13;;;;;;;17.30;4.40;;;12.00;99.90;;;12.91;100.00;98020.16;5110401;28;20485;-78
2021/09/14 05:18:46;;;;;;;7.00;4.77;;;12.00;99.90;;;12.89;100.00;98014.31;5109821;28;20480;-77
2021/09/14 05:21:14;;;;;;;6.37;4.40;;;11.90;99.90;;;12.88;100.00;98012.69;5112014;28;20446;-78
2021/09/14 05:23:42;;;;;;;8.20;4.50;;;11.90;99.90;;;12.83;100.00;98023.78;5102357;28;20511;-77
2021/09/14 05:26:12;;;;;;;8.10;4.13;;;11.80;99.90;;;12.89;100.00;98019.53;5106692;28;20500;-78
2021/09/14 05:28:43;;;;;;;7.50;4.30;;;11.90;99.90;;;12.90;100.00;98015.91;5114261;28;20474;-78
2021/09/14 05:31:11;;;;;;;5.70;4.20;;;11.90;99.90;;;12.92;100.00;98021.75;5113650;28;20783;-77
2021/09/14 05:33:42;;;;;;;5.70;4.47;;;11.90;99.90;;;12.95;100.00;98023.97;5103659;28;20904;-77
2021/09/14 05:36:11;;;;;;;9.73;5.20;;;11.90;99.90;;;12.94;100.00;98017.13;5110984;28;20524;-78
2021/09/14 05:38:43;;;;;;;6.20;4.20;;;11.90;99.90;;;12.94;100.00;98022.38;5098596;28;20796;-77
2021/09/14 05:41:11;;;;;;;4.87;4.37;;;11.90;99.90;;;12.93;100.00;98021.56;5105504;28;20986;-78
2021/09/14 05:43:40;;;;;;;7.83;4.57;;;11.90;99.90;;;12.93;100.00;98026.81;5113181;28;20461;-78
2021/09/14 05:46:08;;;;;;;6.07;4.27;;;11.90;99.90;;;12.94;100.00;98023.19;5113424;28;20992;-77
2021/09/14 05:48:37;;;;;;;7.37;5.90;;;12.00;99.90;;;12.95;100.00;98031.84;5108598;28;20515;-77
2021/09/14 05:51:07;;;;;;;9.20;4.80;;;11.90;99.90;;;12.98;100.00;98027.00;5104680;27;20479;-77
2021/09/14 05:53:35;;;;;;;6.50;4.00;;;12.00;99.90;;;12.98;100.00;98028.84;5097066;28;20440;-77
2021/09/14 05:56:05;;;;;;;5.60;4.10;;;12.00;99.90;;;13.00;100.00;98034.69;5108793;28;20490;-77
2021/09/14 05:58:33;;;;;;;6.10;4.50;;;12.00;99.90;;;13.06;100.00;98036.50;5094264;28;20483;-77
2021/09/14 06:01:02;;;;;;;8.93;4.43;;;12.10;99.90;;;13.07;100.00;98023.19;5107408;28;21285;-77
2021/09/14 06:03:33;;;;;;;4.83;4.00;;;12.10;99.90;;;13.13;100.00;98026.84;5107898;28;20467;-76
2021/09/14 06:06:02;;;;;;;5.40;4.80;;;12.20;99.90;;;13.17;100.00;98020.16;5104023;28;20465;-77
2021/09/14 06:08:32;;;;;;;9.33;4.70;;;12.30;99.90;;;13.23;100.00;98021.16;5105009;28;21067;-76
2021/09/14 06:11:01;;;;;;;9.10;4.40;;;12.30;99.90;;;13.28;100.00;98019.56;5102927;28;20466;-77
2021/09/14 06:13:29;;;;;;;6.83;5.13;;;12.30;99.90;;;13.33;100.00;98026.84;5101265;28;20945;-76
2021/09/14 06:15:58;;;;;;;4.83;4.27;;;12.40;99.90;;;13.34;100.00;98029.22;5101722;28;20498;-77
2021/09/14 06:18:27;;;;;;;8.60;4.70;;;12.40;99.90;;;13.40;100.00;98030.22;5107987;28;20565;-77
2021/09/14 06:20:55;;;;;;;6.37;4.50;;;12.50;99.90;;;13.42;100.00;98029.03;5109061;28;20459;-76
2021/09/14 06:23:24;;;;;;;6.67;4.23;;;12.50;99.90;;;13.47;100.00;98031.84;5110116;28;20446;-77
2021/09/14 06:25:54;;;;;;;7.87;4.27;;;12.50;99.90;;;13.48;100.00;98041.34;5101651;28;20555;-77
2021/09/14 06:28:23;;;;;;;5.90;4.20;;;12.60;99.90;;;13.53;100.00;98048.63;5102092;28;20455;-76
2021/09/14 06:30:51;;;;;;;6.50;4.87;;;12.60;99.90;;;13.57;100.00;98045.34;5102820;28;20438;-78
2021/09/14 06:33:20;;;;;;;7.90;4.50;;;12.60;99.90;;;13.60;100.00;98039.72;5102205;28;20531;-78
2021/09/14 06:35:48;;;;;;;7.33;4.60;;;12.60;99.90;;;13.67;100.00;98039.69;5107980;28;20594;-78
2021/09/14 06:38:17;;;;;;;5.10;4.57;;;12.70;99.90;;;13.75;100.00;98038.63;5103767;27;20446;-78
2021/09/14 06:40:45;;;;;;;9.30;5.20;;;12.80;99.90;;;13.80;100.00;98044.09;5104855;28;20462;-77
2021/09/14 06:43:15;;;;;;;14.43;4.77;;;12.80;99.90;;;13.86;100.00;98035.34;5102629;28;20550;-78
2021/09/14 06:45:46;;;;;;;10.17;4.47;;;12.90;99.90;;;13.93;100.00;98041.41;5096608;28;20458;-78
2021/09/14 06:48:16;;;;;;;8.37;5.03;;;13.00;99.90;;;13.98;100.00;98047.66;5101421;28;20492;-78
2021/09/14 06:50:44;;;;;;;9.30;4.57;;;13.10;99.90;;;14.02;100.00;98033.06;5107755;28;20438;-78
2021/09/14 06:53:13;;;;;;;7.20;5.23;;;13.10;99.90;;;14.08;100.00;98036.69;5097920;28;20463;-78
2021/09/14 06:55:41;;;;;;;8.43;4.73;;;13.10;99.90;;;14.13;100.00;98042.13;5098999;28;20896;-78
2021/09/14 06:58:10;;;;;;;7.60;5.00;;;13.20;99.90;;;14.18;100.00;98042.31;5105739;28;20583;-79
2021/09/14 07:00:40;;;;;;;14.13;5.17;;;13.30;99.90;;;14.20;100.00;98035.00;5099462;28;20507;-78
2021/09/14 07:03:08;;;;;;;7.93;5.43;;;13.30;99.90;;;14.25;100.00;98045.72;5100454;28;20450;-78
2021/09/14 07:05:37;;;;;;;5.30;4.50;;;13.30;99.90;;;14.28;100.00;98042.66;5100231;28;20431;-78
2021/09/14 07:08:06;;;;;;;7.73;4.73;;;13.40;99.90;;;14.32;100.00;98046.50;5101219;28;20479;-78
2021/09/14 07:10:39;;;;;;;5.80;4.50;;;13.40;99.90;;;14.36;100.00;98049.53;5097025;28;20847;-78
2021/09/14 07:13:08;;;;;;;8.30;5.13;;;13.40;99.90;;;14.41;100.00;98045.25;5097981;28;20447;-78
2021/09/14 07:15:37;;;;;;;6.70;4.63;;;13.50;99.90;;;14.46;100.00;98050.69;5100909;28;20482;-78
2021/09/14 07:18:07;;;;;;;9.13;4.60;;;13.60;99.90;;;14.48;100.00;98046.00;5106313;28;20508;-78
2021/09/14 07:20:35;;;;;;;8.10;4.73;;;13.60;99.90;;;14.53;100.00;98046.19;5102505;28;20473;-78
2021/09/14 07:23:04;;;;;;;5.50;4.90;;;13.60;99.90;;;14.57;100.00;98051.84;5105525;28;20488;-78
2021/09/14 07:25:38;;;;;;;9.30;5.13;;;13.70;99.90;;;14.61;100.00;98051.19;5107979;28;20860;-78
2021/09/14 07:28:07;;;;;;;5.23;4.20;;;13.80;99.90;;;14.65;100.00;98046.31;5103262;28;20511;-78
2021/09/14 07:30:36;;;;;;;12.60;5.20;;;13.80;99.90;;;14.68;100.00;98047.72;5103467;28;20515;-78
2021/09/14 07:33:06;;;;;;;6.00;4.37;;;13.80;99.90;;;14.72;100.00;98043.63;5095001;28;20958;-77
2021/09/14 07:35:35;;;;;;;4.67;3.83;;;13.80;99.90;;;14.76;100.00;98044.81;5101175;28;20551;-78
2021/09/14 07:38:04;;;;;;;6.30;4.50;;;13.90;99.90;;;14.80;100.00;98046.00;5104983;28;20452;-78
2021/09/14 07:40:33;;;;;;;6.60;4.50;;;13.90;99.90;;;14.82;100.00;98049.25;5097929;28;20501;-78
2021/09/14 07:43:01;;;;;;;9.00;5.10;;;13.90;99.90;;;14.86;100.00;98055.69;5108275;28;20935;-78
2021/09/14 07:45:31;;;;;;;13.70;6.87;;;13.90;99.90;;;14.89;100.00;98050.00;5107080;28;20462;-78
2021/09/14 07:47:59;;;;;;;49.60;22.93;;;14.00;99.90;;;14.93;100.00;98048.53;5094003;28;20459;-79
2021/09/14 07:50:29;;;;;;;9.70;6.90;;;14.00;99.90;;;14.97;100.00;98049.72;5091678;27;20483;-78
2021/09/14 07:52:58;;;;;;;5.80;4.30;;;14.10;99.90;;;15.00;100.00;98052.75;5103337;28;20504;-78
2021/09/14 07:55:26;;;;;;;4.77;4.10;;;14.10;99.90;;;15.04;100.00;98047.84;5103241;28;20559;-78
2021/09/14 07:57:55;;;;;;;6.43;4.20;;;14.20;99.90;;;15.08;100.00;98059.56;5106859;28;20513;-78
2021/09/14 08:00:24;;;;;;;5.27;4.60;;;14.20;99.90;;;15.13;100.00;98057.13;5103601;28;20498;-78
2021/09/14 08:02:57;;;;;;;9.10;4.40;;;14.30;99.90;;;15.17;100.00;98063.53;5100035;28;20459;-78
2021/09/14 08:05:27;;;;;;;6.63;4.87;;;14.30;99.90;;;15.23;100.00;98067.97;5092177;28;20459;-78
2021/09/14 08:07:56;;;;;;;5.10;4.60;;;14.40;99.90;;;15.27;100.00;98063.84;5097213;28;20455;-78
2021/09/14 08:10:25;;;;;;;6.87;5.17;;;14.40;99.90;;;15.35;100.00;98073.31;5102936;28;20498;-79
2021/09/14 08:12:53;;;;;;;5.53;4.73;;;14.50;99.90;;;15.41;100.00;98065.34;5102527;28;20466;-78
2021/09/14 08:15:22;;;;;;;6.80;4.40;;;14.60;99.90;;;15.47;100.00;98064.50;5101826;28;20870;-78
2021/09/14 08:17:50;;;;;;;7.30;4.97;;;14.70;99.90;;;15.54;100.00;98059.19;5090038;28;20919;-78
2021/09/14 08:20:19;;;;;;;7.50;5.07;;;14.80;99.90;;;15.61;100.00;98049.41;5102053;28;20494;-78
2021/09/14 08:22:47;;;;;;;12.77;5.17;;;14.90;99.90;;;15.71;100.00;98051.50;5094418;28;20454;-78
2021/09/14 08:25:17;;;;;;;6.27;4.70;;;15.00;99.90;;;15.77;100.00;98048.81;5093147;28;20859;-78
2021/09/14 08:27:46;;;;;;;7.57;4.30;;;15.00;99.90;;;15.83;100.00;98047.09;5096709;28;20454;-78
2021/09/14 08:30:14;;;;;;;7.43;5.13;;;15.10;99.90;;;15.90;100.00;98061.03;5094188;28;20482;-78
2021/09/14 08:32:43;;;;;;;6.63;5.03;;;15.20;99.90;;;15.96;100.00;98050.44;5103348;28;20539;-78
2021/09/14 08:35:12;;;;;;;8.50;5.07;;;15.20;99.90;;;16.03;100.00;98047.69;5100306;28;20458;-78
2021/09/14 08:37:40;;;;;;;7.27;4.60;;;15.30;99.90;;;16.10;100.00;98041.28;5106495;28;20519;-78
2021/09/14 08:40:11;;;;;;;6.63;4.70;;;15.30;99.90;;;16.16;100.00;98044.91;5092757;28;20563;-78
2021/09/14 08:42:41;;;;;;;6.00;5.10;;;15.40;99.90;;;16.22;100.00;98040.56;5098346;28;20515;-78
2021/09/14 08:45:12;;;;;;;7.10;4.93;;;15.50;99.90;;;16.28;100.00;98029.91;5092621;28;20571;-78
2021/09/14 08:47:40;;;;;;;6.50;5.27;;;15.60;99.90;;;16.34;100.00;98026.41;5095227;28;20458;-79
2021/09/14 08:50:11;;;;;;;10.83;5.60;;;15.60;99.90;;;16.39;100.00;98015.16;5098704;28;20854;-79
2021/09/14 08:52:40;;;;;;;7.03;4.50;;;15.70;99.90;;;16.44;100.00;98012.66;5100963;28;20459;-76
2021/09/14 08:55:10;;;;;;;20.10;8.17;;;15.80;99.90;;;16.49;100.00;98013.56;5103208;28;20507;-79
2021/09/14 08:57:40;;;;;;;10.77;7.10;;;15.80;99.90;;;16.54;100.00;98011.06;5105171;28;20484;-79
2021/09/14 09:00:10;;;;;;;4.80;4.37;;;15.90;99.90;;;16.57;100.00;98013.28;5100426;28;20446;-79
2021/09/14 09:02:38;;;;;;;7.00;5.17;;;15.90;99.90;;;16.60;100.00;98015.47;5102540;28;20696;-79
2021/09/14 09:05:08;;;;;;;6.43;4.70;;;16.00;99.90;;;16.63;100.00;98014.22;5102909;28;20458;-79
2021/09/14 09:07:38;;;;;;;12.83;4.50;;;16.00;99.90;;;16.67;100.00;98025.13;5111943;28;20450;-79
2021/09/14 09:10:15;;;;;;;6.13;4.60;;;16.00;99.90;;;16.68;100.00;98024.09;5105658;28;20484;-79
2021/09/14 09:12:48;;;;;;;6.50;5.10;;;16.00;99.90;;;16.72;100.00;98025.28;5111338;28;21035;-79
2021/09/14 09:15:26;;;;;;;7.87;5.07;;;16.00;99.90;;;16.76;100.00;98021.16;5105349;28;20859;-79
2021/09/14 09:18:15;;;;;;;7.37;5.10;;;16.00;99.90;;;16.80;100.00;98028.38;5108108;28;20499;-79
2021/09/14 09:20:48;;;;;;;10.83;5.00;;;16.00;99.90;;;16.85;100.00;98025.06;5094447;28;21067;-79
2021/09/14 09:23:22;;;;;;;8.10;4.83;;;16.10;99.90;;;16.91;100.00;98024.13;5109421;28;20442;-78
2021/09/14 09:25:52;;;;;;;7.20;4.57;;;16.20;99.90;;;16.96;100.00;98021.63;5099265;28;20481;-79
2021/09/14 09:28:24;;;;;;;8.77;4.90;;;16.30;99.90;;;17.02;100.00;98023.34;5108060;28;20438;-79
2021/09/14 09:30:56;;;;;;;6.33;4.80;;;16.30;99.90;;;17.08;100.00;98020.59;5092164;28;20451;-79
2021/09/14 09:33:28;;;;;;;7.20;4.93;;;16.40;99.90;;;17.15;100.00;98023.13;5094608;28;20676;-79
2021/09/14 09:36:02;;;;;;;7.80;4.90;;;16.50;99.90;;;17.22;100.00;98015.09;5102407;28;20982;-79
2021/09/14 09:38:32;;;;;;;10.90;5.50;;;16.60;99.90;;;17.29;100.00;98006.00;5102430;28;20465;-79
2021/09/14 09:41:00;;;;;;;178.77;84.90;;;16.70;99.90;;;17.39;100.00;98021.31;5103692;28;20458;-80
2021/09/14 09:43:32;;;;;;;102.33;54.97;;;16.80;99.90;;;17.47;100.00;98024.41;5108607;28;20469;-79
2021/09/14 09:46:09;;;;;;;12.27;7.80;;;16.80;99.90;;;17.54;100.00;98022.44;5101690;28;20515;-79
2021/09/14 09:48:39;;;;;;;6.43;5.20;;;17.00;99.90;;;17.63;100.00;98028.22;5098478;28;20462;-79
2021/09/14 09:51:07;;;;;;;6.60;4.83;;;17.10;99.90;;;17.70;100.00;98023.59;5102081;28;20458;-79
2021/09/14 09:53:38;;;;;;;7.00;4.30;;;17.20;99.90;;;17.79;100.00;98027.50;5105905;28;20462;-80
2021/09/14 09:56:08;;;;;;;8.07;5.20;;;17.30;99.90;;;17.90;100.00;98023.22;5097317;28;20512;-80
2021/09/14 09:58:38;;;;;;;5.47;4.20;;;17.30;99.90;;;17.99;100.00;98019.16;5109181;28;20490;-80
2021/09/14 10:01:15;;;;;;;9.70;4.50;;;17.50;99.90;;;18.08;100.00;98007.94;5101955;28;20458;-79
2021/09/14 10:03:57;;;;;;;15.60;9.00;;;17.60;99.90;;;18.18;100.00;98010.00;5100273;28;20962;-80
2021/09/14 10:06:30;;;;;;;11.80;7.27;;;17.70;99.90;;;18.29;100.00;98017.06;5098781;28;20865;-80
2021/09/14 10:09:00;;;;;;;9.70;4.77;;;17.80;99.90;;;18.39;100.00;98012.00;5106469;28;20508;-79
2021/09/14 10:11:30;;;;;;;7.87;4.57;;;17.90;99.90;;;18.49;100.00;97998.13;5105989;28;20512;-79
2021/09/14 10:14:10;;;;;;;10.20;4.80;;;18.00;99.90;;;18.58;100.00;97994.88;5108422;28;20500;-79
2021/09/14 10:16:45;;;;;;;7.57;4.57;;;18.10;99.90;;;18.70;100.00;97994.00;5109005;28;20538;-79
2021/09/14 10:19:16;;;;;;;7.63;3.80;;;18.20;99.90;;;18.82;100.00;97997.38;5110829;28;20449;-79
2021/09/14 10:21:59;;;;;;;11.47;4.13;;;18.30;99.90;;;18.90;100.00;97991.69;5111028;28;21016;-80
2021/09/14 10:24:28;;;;;;;5.23;4.40;;;18.40;99.90;;;19.00;100.00;97994.47;5102524;28;20466;-79
2021/09/14 10:27:05;;;;;;;6.80;4.10;;;18.50;99.90;;;19.08;100.00;98002.03;5100677;28;20481;-79
2021/09/14 10:29:36;;;;;;;7.10;4.13;;;18.60;99.90;;;19.17;100.00;98003.22;5110984;28;20535;-79
2021/09/14 10:32:07;;;;;;;8.93;4.23;;;18.70;99.90;;;19.25;100.00;97992.22;5107551;28;20430;-79
2021/09/14 10:34:42;;;;;;;6.10;4.40;;;18.70;99.90;;;19.32;100.00;97989.38;5102809;28;20487;-80
2021/09/14 10:37:13;;;;;;;5.73;4.40;;;18.90;99.90;;;19.38;100.00;97983.91;5095118;28;20489;-80
2021/09/14 10:39:44;;;;;;;5.10;4.00;;;19.00;99.90;;;19.45;100.00;97976.59;5104814;28;20560;-80
2021/09/14 10:42:15;;;;;;;5.73;4.33;;;19.00;99.90;;;19.51;100.00;97970.31;5109517;28;20511;-80
2021/09/14 10:44:46;;;;;;;6.47;4.30;;;19.10;99.90;;;19.59;100.00;97972.53;5095426;28;21013;-80
2021/09/14 10:47:18;;;;;;;6.93;4.30;;;19.20;99.90;;;19.66;100.00;97969.72;5104235;28;20466;-80
2021/09/14 10:49:49;;;;;;;6.53;4.70;;;19.20;99.90;;;19.74;100.00;97973.78;5098678;28;21013;-80
2021/09/14 10:52:31;;;;;;;145.70;91.17;;;19.30;99.90;;;19.79;100.00;97969.31;5109015;28;20954;-80
2021/09/14 10:55:06;;;;;;;43.47;25.37;;;19.40;99.90;;;19.86;100.00;97969.13;5110497;28;20485;-80
2021/09/14 10:57:36;;;;;;;10.47;6.40;;;19.40;99.90;;;19.91;100.00;97970.00;5107555;28;20850;-80
2021/09/14 11:00:11;;;;;;;10.87;4.73;;;19.50;99.90;;;19.97;100.00;97971.66;5110295;28;20927;-80
2021/09/14 11:02:40;;;;;;;8.47;4.43;;;19.50;99.90;;;20.05;100.00;97965.13;5110056;28;20927;-80
2021/09/14 11:05:10;;;;;;;5.97;4.30;;;19.60;99.90;;;20.12;100.00;97971.03;5102983;28;20450;-81
2021/09/14 11:07:40;;;;;;;38.40;25.17;;;19.60;99.90;;;20.19;100.00;97973.50;5110440;28;20447;-80
2021/09/14 11:10:12;;;;;;;42.80;25.10;;;19.70;99.90;;;20.25;100.00;97965.31;5104225;27;20483;-81
2021/09/14 11:12:47;;;;;;;194.17;138.83;;;19.80;99.90;;;20.35;100.00;97968.09;5110130;28;20459;-85